Ana Sayfa
METAR-TAF:

METAR-TAF

Havaalanları :

Lahr, Almanya

Enlem: 48-22-09N, Boylam: 007-49-40E, yükseklik: 156 m

Güncel hava durumu gözlemi

Rapor saat 17:50 UTC de 9 saat ve 3 dakika önce yapıldı.
Rüzgar güneybatıdan 3 kt
Sıcaklık 14°C
Nem 94%
Basınç 1016 hPa
Görüş mesafesi: 7000 m
1000 ft yükseklikte az bulutlu
3700 ft yükseklikte parçalı çok bulutlu
hafif yağmur

METAR: EDTL 211750Z 22003KT 7000 -RA FEW010 BKN037 14/13 Q1016

Saat: 04:53 (02:53 UTC)

Tahmin

Rapor saat 17:00 UTC de 9 saat ve 53 dakika önce yapıldı.
Ayın 21'si saat 18 UTC'den ayın 21'si saat 24 UTC'ye kadar geçerli Tahmin
Rüzgar güneybatıdan 5 kt
Görüş mesafesi: 7000 m
3000 ft yükseklikte parçalı çok bulutlu
Geçici
ayın 21'si saat 18 UTC'den ayın 21'si saat 24 UTC'ye kadar
Görüş mesafesi: 4000 m
1200 ft yükseklikte parçalı çok bulutlu
yağmur

TAF: EDTL 211700Z 2118/2124 23005KT 7000 BKN030 TEMPO 2118/2124 4000 RA BKN012

4.000'den fazla havaalanı için hava durumu gözlemleri ve tahminleri (METAR ve TAF raporları).

Kullanılabilir istasyonlar harita üzerinde sarı ve kırmızı noktalarla gösterilir.

İstasyonun adını görmek için fareyi noktanın üzerinde gezdirin.

Sonrasında hava gözlem ve tahminlerini görmek için tıklayın.

Haritayı değiştirmek için: yaklaştırmak için siyah artı işaretli yeşil düğmeye ve uzaklaştırmak için de eksi işaretli düğmeye hızla tıklayın; bitişik haritalar için yeşil okları kullanın.


METAR-TAF: